sensor_id;sensor_type;location;lat;lon;timestamp;temperature;humidity
2050;DHT22;8478;49.208;8.806;2023-07-13T00:01:50;22.10;99.90
2050;DHT22;8478;49.208;8.806;2023-07-13T00:04:21;22.10;99.90
2050;DHT22;8478;49.208;8.806;2023-07-13T00:06:48;22.10;99.90
2050;DHT22;8478;49.208;8.806;2023-07-13T00:09:16;22.10;99.90
2050;DHT22;8478;49.208;8.806;2023-07-13T00:11:43;22.10;99.90
2050;DHT22;8478;49.208;8.806;2023-07-13T00:14:10;22.10;99.90
2050;DHT22;8478;49.208;8.806;2023-07-13T00:16:37;22.10;99.90
2050;DHT22;8478;49.208;8.806;2023-07-13T00:19:04;22.10;99.90
2050;DHT22;8478;49.208;8.806;2023-07-13T00:21:30;22.10;99.90
2050;DHT22;8478;49.208;8.806;2023-07-13T00:23:55;22.10;99.90
2050;DHT22;8478;49.208;8.806;2023-07-13T00:26:21;22.10;99.90
2050;DHT22;8478;49.208;8.806;2023-07-13T00:28:47;22.10;99.90
2050;DHT22;8478;49.208;8.806;2023-07-13T00:31:13;22.10;99.90
2050;DHT22;8478;49.208;8.806;2023-07-13T00:33:42;22.00;99.90
2050;DHT22;8478;49.208;8.806;2023-07-13T00:36:09;22.10;99.90
2050;DHT22;8478;49.208;8.806;2023-07-13T00:38:36;22.10;99.90
2050;DHT22;8478;49.208;8.806;2023-07-13T00:41:03;22.00;99.90
2050;DHT22;8478;49.208;8.806;2023-07-13T00:43:29;22.00;99.90
2050;DHT22;8478;49.208;8.806;2023-07-13T00:48:29;22.00;99.90
2050;DHT22;8478;49.208;8.806;2023-07-13T00:50:58;22.00;99.90
2050;DHT22;8478;49.208;8.806;2023-07-13T00:53:27;22.00;99.90
2050;DHT22;8478;49.208;8.806;2023-07-13T00:55:55;22.00;99.90
2050;DHT22;8478;49.208;8.806;2023-07-13T00:58:22;22.00;99.90
2050;DHT22;8478;49.208;8.806;2023-07-13T01:00:49;22.00;99.90
2050;DHT22;8478;49.208;8.806;2023-07-13T01:03:16;22.00;99.90
2050;DHT22;8478;49.208;8.806;2023-07-13T01:05:43;22.00;99.90
2050;DHT22;8478;49.208;8.806;2023-07-13T01:08:09;21.90;99.90
2050;DHT22;8478;49.208;8.806;2023-07-13T01:10:35;22.00;99.90
2050;DHT22;8478;49.208;8.806;2023-07-13T01:13:09;22.00;99.90
2050;DHT22;8478;49.208;8.806;2023-07-13T01:15:47;21.90;99.90
2050;DHT22;8478;49.208;8.806;2023-07-13T01:18:16;22.00;99.90
2050;DHT22;8478;49.208;8.806;2023-07-13T01:21:00;21.90;99.90
2050;DHT22;8478;49.208;8.806;2023-07-13T01:23:26;21.90;99.90
2050;DHT22;8478;49.208;8.806;2023-07-13T01:25:53;21.90;99.90
2050;DHT22;8478;49.208;8.806;2023-07-13T01:28:20;21.90;99.90
2050;DHT22;8478;49.208;8.806;2023-07-13T01:30:47;21.90;99.90
2050;DHT22;8478;49.208;8.806;2023-07-13T01:33:14;21.90;99.90
2050;DHT22;8478;49.208;8.806;2023-07-13T01:35:41;21.90;99.90
2050;DHT22;8478;49.208;8.806;2023-07-13T01:38:07;21.90;99.90
2050;DHT22;8478;49.208;8.806;2023-07-13T01:40:34;21.90;99.90
2050;DHT22;8478;49.208;8.806;2023-07-13T01:43:00;21.90;99.90
2050;DHT22;8478;49.208;8.806;2023-07-13T01:45:26;21.90;99.90
2050;DHT22;8478;49.208;8.806;2023-07-13T01:47:52;21.90;99.90
2050;DHT22;8478;49.208;8.806;2023-07-13T01:50:18;21.80;99.90
2050;DHT22;8478;49.208;8.806;2023-07-13T01:52:44;21.80;99.90
2050;DHT22;8478;49.208;8.806;2023-07-13T01:55:09;21.80;99.90
2050;DHT22;8478;49.208;8.806;2023-07-13T01:57:35;21.80;99.90
2050;DHT22;8478;49.208;8.806;2023-07-13T02:00:03;21.80;99.90
2050;DHT22;8478;49.208;8.806;2023-07-13T02:02:30;21.80;99.90
2050;DHT22;8478;49.208;8.806;2023-07-13T02:04:56;21.80;99.90
2050;DHT22;8478;49.208;8.806;2023-07-13T02:07:21;21.80;99.90
2050;DHT22;8478;49.208;8.806;2023-07-13T02:09:47;21.80;99.90
2050;DHT22;8478;49.208;8.806;2023-07-13T02:12:13;21.80;99.90
2050;DHT22;8478;49.208;8.806;2023-07-13T02:14:38;21.80;99.90
2050;DHT22;8478;49.208;8.806;2023-07-13T02:17:05;21.80;99.90
2050;DHT22;8478;49.208;8.806;2023-07-13T02:19:31;21.80;99.90
2050;DHT22;8478;49.208;8.806;2023-07-13T02:21:57;21.80;99.90
2050;DHT22;8478;49.208;8.806;2023-07-13T02:24:23;21.70;99.90
2050;DHT22;8478;49.208;8.806;2023-07-13T02:26:49;21.70;99.90
2050;DHT22;8478;49.208;8.806;2023-07-13T02:29:15;21.70;99.90
2050;DHT22;8478;49.208;8.806;2023-07-13T02:31:40;21.70;99.90
2050;DHT22;8478;49.208;8.806;2023-07-13T02:34:06;21.70;99.90
2050;DHT22;8478;49.208;8.806;2023-07-13T02:36:32;21.70;99.90
2050;DHT22;8478;49.208;8.806;2023-07-13T02:39:01;21.70;99.90
2050;DHT22;8478;49.208;8.806;2023-07-13T02:41:28;21.70;99.90
2050;DHT22;8478;49.208;8.806;2023-07-13T02:43:54;21.70;99.90
2050;DHT22;8478;49.208;8.806;2023-07-13T02:46:20;21.70;99.90
2050;DHT22;8478;49.208;8.806;2023-07-13T02:48:46;21.70;99.90
2050;DHT22;8478;49.208;8.806;2023-07-13T02:51:12;21.70;99.90
2050;DHT22;8478;49.208;8.806;2023-07-13T02:53:37;21.70;99.90
2050;DHT22;8478;49.208;8.806;2023-07-13T02:56:04;21.70;99.90
2050;DHT22;8478;49.208;8.806;2023-07-13T02:58:30;21.70;99.90
2050;DHT22;8478;49.208;8.806;2023-07-13T03:00:56;21.70;99.90
2050;DHT22;8478;49.208;8.806;2023-07-13T03:03:23;21.60;99.90
2050;DHT22;8478;49.208;8.806;2023-07-13T03:05:58;21.60;99.90
2050;DHT22;8478;49.208;8.806;2023-07-13T03:08:25;21.60;99.90
2050;DHT22;8478;49.208;8.806;2023-07-13T03:11:03;21.60;99.90
2050;DHT22;8478;49.208;8.806;2023-07-13T03:13:29;21.60;99.90
2050;DHT22;8478;49.208;8.806;2023-07-13T03:15:54;21.60;99.90
2050;DHT22;8478;49.208;8.806;2023-07-13T03:18:20;21.60;99.90
2050;DHT22;8478;49.208;8.806;2023-07-13T03:20:46;21.60;99.90
2050;DHT22;8478;49.208;8.806;2023-07-13T03:23:11;21.60;99.90
2050;DHT22;8478;49.208;8.806;2023-07-13T03:25:37;21.60;99.90
2050;DHT22;8478;49.208;8.806;2023-07-13T03:28:03;21.60;99.90
2050;DHT22;8478;49.208;8.806;2023-07-13T03:30:31;21.50;99.90
2050;DHT22;8478;49.208;8.806;2023-07-13T03:32:56;21.50;99.90
2050;DHT22;8478;49.208;8.806;2023-07-13T03:35:22;21.50;99.90
2050;DHT22;8478;49.208;8.806;2023-07-13T03:37:48;21.50;99.90
2050;DHT22;8478;49.208;8.806;2023-07-13T03:40:13;21.50;99.90
2050;DHT22;8478;49.208;8.806;2023-07-13T03:42:39;21.50;99.90
2050;DHT22;8478;49.208;8.806;2023-07-13T03:45:05;21.50;99.90
2050;DHT22;8478;49.208;8.806;2023-07-13T03:47:31;21.50;99.90
2050;DHT22;8478;49.208;8.806;2023-07-13T03:49:57;21.50;99.90
2050;DHT22;8478;49.208;8.806;2023-07-13T03:52:22;21.50;99.90
2050;DHT22;8478;49.208;8.806;2023-07-13T03:54:48;21.50;99.90
2050;DHT22;8478;49.208;8.806;2023-07-13T03:57:14;21.50;99.90
2050;DHT22;8478;49.208;8.806;2023-07-13T03:59:39;21.40;99.90
2050;DHT22;8478;49.208;8.806;2023-07-13T04:02:05;21.40;99.90
2050;DHT22;8478;49.208;8.806;2023-07-13T04:04:31;21.50;99.90
2050;DHT22;8478;49.208;8.806;2023-07-13T04:06:59;21.40;99.90
2050;DHT22;8478;49.208;8.806;2023-07-13T04:09:25;21.40;99.90
2050;DHT22;8478;49.208;8.806;2023-07-13T04:11:51;21.40;99.90
2050;DHT22;8478;49.208;8.806;2023-07-13T04:14:17;21.40;99.90
2050;DHT22;8478;49.208;8.806;2023-07-13T04:16:43;21.40;99.90
2050;DHT22;8478;49.208;8.806;2023-07-13T04:19:09;21.40;99.90
2050;DHT22;8478;49.208;8.806;2023-07-13T04:21:36;21.40;99.90
2050;DHT22;8478;49.208;8.806;2023-07-13T04:24:02;21.40;99.90
2050;DHT22;8478;49.208;8.806;2023-07-13T04:26:28;21.40;99.90
2050;DHT22;8478;49.208;8.806;2023-07-13T04:28:54;21.40;99.90
2050;DHT22;8478;49.208;8.806;2023-07-13T04:31:20;21.40;99.90
2050;DHT22;8478;49.208;8.806;2023-07-13T04:33:47;21.40;99.90
2050;DHT22;8478;49.208;8.806;2023-07-13T04:36:12;21.30;99.90
2050;DHT22;8478;49.208;8.806;2023-07-13T04:38:38;21.30;99.90
2050;DHT22;8478;49.208;8.806;2023-07-13T04:41:06;21.30;99.90
2050;DHT22;8478;49.208;8.806;2023-07-13T04:43:33;21.30;99.90
2050;DHT22;8478;49.208;8.806;2023-07-13T04:46:10;21.30;99.90
2050;DHT22;8478;49.208;8.806;2023-07-13T04:48:37;21.30;99.90
2050;DHT22;8478;49.208;8.806;2023-07-13T04:51:03;21.30;99.90
2050;DHT22;8478;49.208;8.806;2023-07-13T04:53:30;21.30;99.90
2050;DHT22;8478;49.208;8.806;2023-07-13T04:55:56;21.30;99.90
2050;DHT22;8478;49.208;8.806;2023-07-13T04:58:23;21.30;99.90
2050;DHT22;8478;49.208;8.806;2023-07-13T05:00:49;21.30;99.90
2050;DHT22;8478;49.208;8.806;2023-07-13T05:03:15;21.30;99.90
2050;DHT22;8478;49.208;8.806;2023-07-13T05:05:41;21.30;99.90
2050;DHT22;8478;49.208;8.806;2023-07-13T05:08:07;21.30;99.90
2050;DHT22;8478;49.208;8.806;2023-07-13T05:10:33;21.30;99.90
2050;DHT22;8478;49.208;8.806;2023-07-13T05:12:59;21.20;99.90
2050;DHT22;8478;49.208;8.806;2023-07-13T05:15:24;21.30;99.90
2050;DHT22;8478;49.208;8.806;2023-07-13T05:17:51;21.30;99.90
2050;DHT22;8478;49.208;8.806;2023-07-13T05:20:18;21.30;99.90
2050;DHT22;8478;49.208;8.806;2023-07-13T05:22:44;21.30;99.90
2050;DHT22;8478;49.208;8.806;2023-07-13T05:25:12;21.30;99.90
2050;DHT22;8478;49.208;8.806;2023-07-13T05:27:38;21.30;99.90
2050;DHT22;8478;49.208;8.806;2023-07-13T05:30:05;21.20;99.90
2050;DHT22;8478;49.208;8.806;2023-07-13T05:32:31;21.20;99.90
2050;DHT22;8478;49.208;8.806;2023-07-13T05:34:56;21.20;99.90
2050;DHT22;8478;49.208;8.806;2023-07-13T05:37:22;21.20;99.90
2050;DHT22;8478;49.208;8.806;2023-07-13T05:39:48;21.20;99.90
2050;DHT22;8478;49.208;8.806;2023-07-13T05:42:14;21.20;99.90
2050;DHT22;8478;49.208;8.806;2023-07-13T05:44:39;21.20;99.90
2050;DHT22;8478;49.208;8.806;2023-07-13T05:47:05;21.20;99.90
2050;DHT22;8478;49.208;8.806;2023-07-13T05:49:31;21.20;99.90
2050;DHT22;8478;49.208;8.806;2023-07-13T05:51:57;21.20;99.90
2050;DHT22;8478;49.208;8.806;2023-07-13T05:54:23;21.20;99.90
2050;DHT22;8478;49.208;8.806;2023-07-13T05:56:48;21.20;99.90
2050;DHT22;8478;49.208;8.806;2023-07-13T05:59:14;21.20;99.90
2050;DHT22;8478;49.208;8.806;2023-07-13T06:01:41;21.20;99.90
2050;DHT22;8478;49.208;8.806;2023-07-13T06:04:06;21.20;99.90
2050;DHT22;8478;49.208;8.806;2023-07-13T06:06:32;21.20;99.90
2050;DHT22;8478;49.208;8.806;2023-07-13T06:08:58;21.20;99.90
2050;DHT22;8478;49.208;8.806;2023-07-13T06:11:25;21.20;99.90
2050;DHT22;8478;49.208;8.806;2023-07-13T06:13:51;21.20;99.90
2050;DHT22;8478;49.208;8.806;2023-07-13T06:16:17;21.20;99.90
2050;DHT22;8478;49.208;8.806;2023-07-13T06:18:43;21.20;99.90
2050;DHT22;8478;49.208;8.806;2023-07-13T06:21:18;21.20;99.90
2050;DHT22;8478;49.208;8.806;2023-07-13T06:23:45;21.20;99.90
2050;DHT22;8478;49.208;8.806;2023-07-13T06:26:13;21.20;99.90
2050;DHT22;8478;49.208;8.806;2023-07-13T06:28:39;21.20;99.90
2050;DHT22;8478;49.208;8.806;2023-07-13T06:31:09;21.20;99.90
2050;DHT22;8478;49.208;8.806;2023-07-13T06:33:35;21.20;99.90
2050;DHT22;8478;49.208;8.806;2023-07-13T06:36:02;21.20;99.90
2050;DHT22;8478;49.208;8.806;2023-07-13T06:38:28;21.20;99.90
2050;DHT22;8478;49.208;8.806;2023-07-13T06:40:54;21.20;99.90
2050;DHT22;8478;49.208;8.806;2023-07-13T06:43:19;21.20;99.90
2050;DHT22;8478;49.208;8.806;2023-07-13T06:45:46;21.20;99.90
2050;DHT22;8478;49.208;8.806;2023-07-13T06:48:18;21.20;99.90
2050;DHT22;8478;49.208;8.806;2023-07-13T06:50:45;21.20;99.90
2050;DHT22;8478;49.208;8.806;2023-07-13T06:53:11;21.20;99.90
2050;DHT22;8478;49.208;8.806;2023-07-13T06:55:37;21.20;99.90
2050;DHT22;8478;49.208;8.806;2023-07-13T06:58:03;21.20;99.90
2050;DHT22;8478;49.208;8.806;2023-07-13T07:00:29;21.20;99.90
2050;DHT22;8478;49.208;8.806;2023-07-13T07:02:55;21.20;99.90
2050;DHT22;8478;49.208;8.806;2023-07-13T07:05:21;21.20;99.90
2050;DHT22;8478;49.208;8.806;2023-07-13T07:07:51;21.20;99.90
2050;DHT22;8478;49.208;8.806;2023-07-13T07:10:18;21.20;99.90
2050;DHT22;8478;49.208;8.806;2023-07-13T07:12:43;21.20;99.90
2050;DHT22;8478;49.208;8.806;2023-07-13T07:15:09;21.20;99.90
2050;DHT22;8478;49.208;8.806;2023-07-13T07:17:35;21.10;99.90
2050;DHT22;8478;49.208;8.806;2023-07-13T07:20:01;21.20;99.90
2050;DHT22;8478;49.208;8.806;2023-07-13T07:22:27;21.20;99.90
2050;DHT22;8478;49.208;8.806;2023-07-13T07:24:53;21.20;99.90
2050;DHT22;8478;49.208;8.806;2023-07-13T07:27:19;21.20;99.90
2050;DHT22;8478;49.208;8.806;2023-07-13T07:29:45;21.10;99.90
2050;DHT22;8478;49.208;8.806;2023-07-13T07:32:11;21.10;99.90
2050;DHT22;8478;49.208;8.806;2023-07-13T07:34:36;21.10;99.90
2050;DHT22;8478;49.208;8.806;2023-07-13T07:37:03;21.20;99.90
2050;DHT22;8478;49.208;8.806;2023-07-13T07:39:29;21.10;99.90
2050;DHT22;8478;49.208;8.806;2023-07-13T07:41:55;21.10;99.90
2050;DHT22;8478;49.208;8.806;2023-07-13T07:44:20;21.10;99.90
2050;DHT22;8478;49.208;8.806;2023-07-13T07:46:46;21.20;99.90
2050;DHT22;8478;49.208;8.806;2023-07-13T07:49:12;21.20;99.90
2050;DHT22;8478;49.208;8.806;2023-07-13T07:51:38;21.10;99.90
2050;DHT22;8478;49.208;8.806;2023-07-13T07:54:04;21.10;99.90
2050;DHT22;8478;49.208;8.806;2023-07-13T07:56:31;21.10;99.90
2050;DHT22;8478;49.208;8.806;2023-07-13T07:58:57;21.10;99.90
2050;DHT22;8478;49.208;8.806;2023-07-13T08:01:23;21.10;99.90
2050;DHT22;8478;49.208;8.806;2023-07-13T08:03:49;21.10;99.90
2050;DHT22;8478;49.208;8.806;2023-07-13T08:06:15;21.10;99.90
2050;DHT22;8478;49.208;8.806;2023-07-13T08:08:40;21.20;99.90
2050;DHT22;8478;49.208;8.806;2023-07-13T08:11:09;21.20;99.90
2050;DHT22;8478;49.208;8.806;2023-07-13T08:13:36;21.20;99.90
2050;DHT22;8478;49.208;8.806;2023-07-13T08:16:04;21.10;99.90
2050;DHT22;8478;49.208;8.806;2023-07-13T08:18:30;21.10;99.90
2050;DHT22;8478;49.208;8.806;2023-07-13T08:20:56;21.10;99.90
2050;DHT22;8478;49.208;8.806;2023-07-13T08:23:25;21.10;99.90
2050;DHT22;8478;49.208;8.806;2023-07-13T08:25:55;21.10;99.90
2050;DHT22;8478;49.208;8.806;2023-07-13T08:28:21;21.10;99.90
2050;DHT22;8478;49.208;8.806;2023-07-13T08:30:47;21.10;99.90
2050;DHT22;8478;49.208;8.806;2023-07-13T08:33:21;21.10;99.90
2050;DHT22;8478;49.208;8.806;2023-07-13T08:35:50;21.10;99.90
2050;DHT22;8478;49.208;8.806;2023-07-13T08:38:17;21.10;99.90
2050;DHT22;8478;49.208;8.806;2023-07-13T08:40:44;21.10;99.90
2050;DHT22;8478;49.208;8.806;2023-07-13T08:43:16;21.10;99.90
2050;DHT22;8478;49.208;8.806;2023-07-13T08:49:26;21.10;99.90
2050;DHT22;8478;49.208;8.806;2023-07-13T08:54:05;21.10;99.90
2050;DHT22;8478;49.208;8.806;2023-07-13T08:56:34;21.10;99.90
2050;DHT22;8478;49.208;8.806;2023-07-13T08:59:11;21.10;99.90
2050;DHT22;8478;49.208;8.806;2023-07-13T09:02:15;21.10;99.90
2050;DHT22;8478;49.208;8.806;2023-07-13T09:10:19;21.10;99.90
2050;DHT22;8478;49.208;8.806;2023-07-13T09:15:36;21.10;99.90
2050;DHT22;8478;49.208;8.806;2023-07-13T09:20:54;21.10;99.90
2050;DHT22;8478;49.208;8.806;2023-07-13T09:23:22;21.10;99.90
2050;DHT22;8478;49.208;8.806;2023-07-13T09:25:54;21.10;99.90
2050;DHT22;8478;49.208;8.806;2023-07-13T09:28:29;21.10;99.90
2050;DHT22;8478;49.208;8.806;2023-07-13T09:31:10;21.00;99.90
2050;DHT22;8478;49.208;8.806;2023-07-13T09:33:38;21.10;99.90
2050;DHT22;8478;49.208;8.806;2023-07-13T09:36:23;21.00;99.90
2050;DHT22;8478;49.208;8.806;2023-07-13T09:39:03;21.10;99.90
2050;DHT22;8478;49.208;8.806;2023-07-13T09:44:57;21.00;99.90
2050;DHT22;8478;49.208;8.806;2023-07-13T09:47:30;21.10;99.90
2050;DHT22;8478;49.208;8.806;2023-07-13T09:50:08;21.10;99.90
2050;DHT22;8478;49.208;8.806;2023-07-13T09:52:48;21.10;99.90
2050;DHT22;8478;49.208;8.806;2023-07-13T09:55:37;21.10;99.90
2050;DHT22;8478;49.208;8.806;2023-07-13T09:58:05;21.00;99.90
2050;DHT22;8478;49.208;8.806;2023-07-13T10:00:35;21.00;99.90
2050;DHT22;8478;49.208;8.806;2023-07-13T10:03:05;21.00;99.90
2050;DHT22;8478;49.208;8.806;2023-07-13T10:05:39;21.00;99.90
2050;DHT22;8478;49.208;8.806;2023-07-13T10:08:04;21.00;99.90
2050;DHT22;8478;49.208;8.806;2023-07-13T10:10:32;21.00;99.90
2050;DHT22;8478;49.208;8.806;2023-07-13T10:12:58;21.10;99.90
2050;DHT22;8478;49.208;8.806;2023-07-13T10:15:25;21.00;99.90
2050;DHT22;8478;49.208;8.806;2023-07-13T10:17:53;21.10;99.90
2050;DHT22;8478;49.208;8.806;2023-07-13T10:20:21;21.00;99.90
2050;DHT22;8478;49.208;8.806;2023-07-13T10:23:00;21.00;99.90
2050;DHT22;8478;49.208;8.806;2023-07-13T10:25:31;21.00;99.90
2050;DHT22;8478;49.208;8.806;2023-07-13T10:28:06;21.00;99.90
2050;DHT22;8478;49.208;8.806;2023-07-13T10:30:39;21.00;99.90
2050;DHT22;8478;49.208;8.806;2023-07-13T10:33:10;21.00;99.90
2050;DHT22;8478;49.208;8.806;2023-07-13T10:35:37;21.10;99.90
2050;DHT22;8478;49.208;8.806;2023-07-13T10:38:07;21.00;99.90
2050;DHT22;8478;49.208;8.806;2023-07-13T10:40:39;21.00;99.90
2050;DHT22;8478;49.208;8.806;2023-07-13T10:43:27;21.10;99.90
2050;DHT22;8478;49.208;8.806;2023-07-13T10:45:54;21.10;99.90
2050;DHT22;8478;49.208;8.806;2023-07-13T10:48:22;21.10;99.90
2050;DHT22;8478;49.208;8.806;2023-07-13T10:50:51;21.00;99.90
2050;DHT22;8478;49.208;8.806;2023-07-13T10:53:21;21.00;99.90
2050;DHT22;8478;49.208;8.806;2023-07-13T10:58:22;21.10;99.90
2050;DHT22;8478;49.208;8.806;2023-07-13T11:01:12;21.10;99.90
2050;DHT22;8478;49.208;8.806;2023-07-13T11:04:00;21.10;99.90
2050;DHT22;8478;49.208;8.806;2023-07-13T11:09:31;21.00;99.90
2050;DHT22;8478;49.208;8.806;2023-07-13T11:17:49;21.10;99.90
2050;DHT22;8478;49.208;8.806;2023-07-13T11:22:52;21.00;99.90
2050;DHT22;8478;49.208;8.806;2023-07-13T11:38:22;21.10;99.90
2050;DHT22;8478;49.208;8.806;2023-07-13T11:40:51;21.10;99.90
2050;DHT22;8478;49.208;8.806;2023-07-13T11:43:18;21.10;99.90
2050;DHT22;8478;49.208;8.806;2023-07-13T11:45:44;21.10;99.90
2050;DHT22;8478;49.208;8.806;2023-07-13T11:48:37;21.00;99.90
2050;DHT22;8478;49.208;8.806;2023-07-13T11:51:04;21.10;99.90
2050;DHT22;8478;49.208;8.806;2023-07-13T11:53:39;21.10;99.90
2050;DHT22;8478;49.208;8.806;2023-07-13T11:56:06;21.10;99.90
2050;DHT22;8478;49.208;8.806;2023-07-13T11:58:32;21.10;99.90
2050;DHT22;8478;49.208;8.806;2023-07-13T12:00:59;21.10;99.90
2050;DHT22;8478;49.208;8.806;2023-07-13T12:03:27;21.10;99.90
2050;DHT22;8478;49.208;8.806;2023-07-13T12:06:06;21.10;99.90
2050;DHT22;8478;49.208;8.806;2023-07-13T12:08:38;21.10;99.90
2050;DHT22;8478;49.208;8.806;2023-07-13T12:11:16;21.10;99.90
2050;DHT22;8478;49.208;8.806;2023-07-13T12:13:44;21.10;99.90
2050;DHT22;8478;49.208;8.806;2023-07-13T12:16:29;21.10;99.90
2050;DHT22;8478;49.208;8.806;2023-07-13T12:18:56;21.20;99.90
2050;DHT22;8478;49.208;8.806;2023-07-13T12:21:37;21.20;99.90
2050;DHT22;8478;49.208;8.806;2023-07-13T12:24:04;21.10;99.90
2050;DHT22;8478;49.208;8.806;2023-07-13T12:26:31;21.20;99.90
2050;DHT22;8478;49.208;8.806;2023-07-13T12:29:00;21.20;99.90
2050;DHT22;8478;49.208;8.806;2023-07-13T12:34:01;21.10;99.90
2050;DHT22;8478;49.208;8.806;2023-07-13T12:36:34;21.10;99.90
2050;DHT22;8478;49.208;8.806;2023-07-13T12:41:50;21.20;99.90
2050;DHT22;8478;49.208;8.806;2023-07-13T12:44:20;21.20;99.90
2050;DHT22;8478;49.208;8.806;2023-07-13T12:46:58;21.20;99.90
2050;DHT22;8478;49.208;8.806;2023-07-13T12:49:28;21.20;99.90
2050;DHT22;8478;49.208;8.806;2023-07-13T12:52:00;21.20;99.90
2050;DHT22;8478;49.208;8.806;2023-07-13T12:54:27;21.20;99.90
2050;DHT22;8478;49.208;8.806;2023-07-13T12:56:53;21.20;99.90
2050;DHT22;8478;49.208;8.806;2023-07-13T12:59:22;21.20;99.90
2050;DHT22;8478;49.208;8.806;2023-07-13T13:01:49;21.20;99.90
2050;DHT22;8478;49.208;8.806;2023-07-13T13:04:15;21.20;99.90
2050;DHT22;8478;49.208;8.806;2023-07-13T13:06:42;21.20;99.90
2050;DHT22;8478;49.208;8.806;2023-07-13T13:09:13;21.20;99.90
2050;DHT22;8478;49.208;8.806;2023-07-13T13:11:39;21.20;99.90
2050;DHT22;8478;49.208;8.806;2023-07-13T13:14:06;21.20;99.90
2050;DHT22;8478;49.208;8.806;2023-07-13T13:19:21;21.20;99.90
2050;DHT22;8478;49.208;8.806;2023-07-13T13:21:47;21.20;99.90
2050;DHT22;8478;49.208;8.806;2023-07-13T13:24:21;21.20;99.90
2050;DHT22;8478;49.208;8.806;2023-07-13T13:26:48;21.20;99.90
2050;DHT22;8478;49.208;8.806;2023-07-13T13:29:25;21.20;99.90
2050;DHT22;8478;49.208;8.806;2023-07-13T13:31:51;21.20;99.90
2050;DHT22;8478;49.208;8.806;2023-07-13T13:34:19;21.20;99.90
2050;DHT22;8478;49.208;8.806;2023-07-13T13:36:47;21.20;99.90
2050;DHT22;8478;49.208;8.806;2023-07-13T13:39:30;21.20;99.90
2050;DHT22;8478;49.208;8.806;2023-07-13T13:41:56;21.20;99.90
2050;DHT22;8478;49.208;8.806;2023-07-13T13:44:22;21.20;99.90
2050;DHT22;8478;49.208;8.806;2023-07-13T13:46:52;21.20;99.90
2050;DHT22;8478;49.208;8.806;2023-07-13T13:49:22;21.20;99.90
2050;DHT22;8478;49.208;8.806;2023-07-13T13:51:49;21.30;99.90
2050;DHT22;8478;49.208;8.806;2023-07-13T13:54:16;21.30;99.90
2050;DHT22;8478;49.208;8.806;2023-07-13T13:56:44;21.30;99.90
2050;DHT22;8478;49.208;8.806;2023-07-13T13:59:11;21.30;99.90
2050;DHT22;8478;49.208;8.806;2023-07-13T14:01:37;21.20;99.90
2050;DHT22;8478;49.208;8.806;2023-07-13T14:04:04;21.30;99.90
2050;DHT22;8478;49.208;8.806;2023-07-13T14:06:31;21.30;99.90
2050;DHT22;8478;49.208;8.806;2023-07-13T14:08:57;21.20;99.90
2050;DHT22;8478;49.208;8.806;2023-07-13T14:11:23;21.30;99.90
2050;DHT22;8478;49.208;8.806;2023-07-13T14:13:55;21.30;99.90
2050;DHT22;8478;49.208;8.806;2023-07-13T14:16:25;21.30;99.90
2050;DHT22;8478;49.208;8.806;2023-07-13T14:18:53;21.30;99.90
2050;DHT22;8478;49.208;8.806;2023-07-13T14:21:21;21.30;99.90
2050;DHT22;8478;49.208;8.806;2023-07-13T14:23:47;21.30;99.90
2050;DHT22;8478;49.208;8.806;2023-07-13T14:26:19;21.30;99.90
2050;DHT22;8478;49.208;8.806;2023-07-13T14:28:48;21.30;99.90
2050;DHT22;8478;49.208;8.806;2023-07-13T14:31:15;21.30;99.90
2050;DHT22;8478;49.208;8.806;2023-07-13T14:33:42;21.30;99.90
2050;DHT22;8478;49.208;8.806;2023-07-13T14:38:45;21.30;99.90
2050;DHT22;8478;49.208;8.806;2023-07-13T14:41:11;21.30;99.90
2050;DHT22;8478;49.208;8.806;2023-07-13T14:43:36;21.30;99.90
2050;DHT22;8478;49.208;8.806;2023-07-13T14:46:02;21.30;99.90
2050;DHT22;8478;49.208;8.806;2023-07-13T14:48:30;21.30;99.90
2050;DHT22;8478;49.208;8.806;2023-07-13T14:50:57;21.30;99.90
2050;DHT22;8478;49.208;8.806;2023-07-13T14:53:25;21.30;99.90
2050;DHT22;8478;49.208;8.806;2023-07-13T14:55:53;21.30;99.90
2050;DHT22;8478;49.208;8.806;2023-07-13T14:58:19;21.30;99.90
2050;DHT22;8478;49.208;8.806;2023-07-13T15:00:45;21.30;99.90
2050;DHT22;8478;49.208;8.806;2023-07-13T15:03:23;21.30;99.90
2050;DHT22;8478;49.208;8.806;2023-07-13T15:05:50;21.30;99.90
2050;DHT22;8478;49.208;8.806;2023-07-13T15:08:16;21.30;99.90
2050;DHT22;8478;49.208;8.806;2023-07-13T15:10:42;21.30;99.90
2050;DHT22;8478;49.208;8.806;2023-07-13T15:13:19;21.30;99.90
2050;DHT22;8478;49.208;8.806;2023-07-13T15:15:53;21.30;99.90
2050;DHT22;8478;49.208;8.806;2023-07-13T15:18:23;21.30;99.90
2050;DHT22;8478;49.208;8.806;2023-07-13T15:20:51;21.30;99.90
2050;DHT22;8478;49.208;8.806;2023-07-13T15:23:22;21.30;99.90
2050;DHT22;8478;49.208;8.806;2023-07-13T15:25:48;21.30;99.90
2050;DHT22;8478;49.208;8.806;2023-07-13T15:28:15;21.30;99.90
2050;DHT22;8478;49.208;8.806;2023-07-13T15:30:43;21.30;99.90
2050;DHT22;8478;49.208;8.806;2023-07-13T15:33:19;21.30;99.90
2050;DHT22;8478;49.208;8.806;2023-07-13T15:35:47;21.30;99.90
2050;DHT22;8478;49.208;8.806;2023-07-13T15:38:17;21.30;99.90
2050;DHT22;8478;49.208;8.806;2023-07-13T15:40:43;21.30;99.90
2050;DHT22;8478;49.208;8.806;2023-07-13T15:43:13;21.30;99.90
2050;DHT22;8478;49.208;8.806;2023-07-13T15:45:40;21.30;99.90
2050;DHT22;8478;49.208;8.806;2023-07-13T15:48:19;21.30;99.90
2050;DHT22;8478;49.208;8.806;2023-07-13T15:50:50;21.30;99.90
2050;DHT22;8478;49.208;8.806;2023-07-13T15:53:31;21.30;99.90
2050;DHT22;8478;49.208;8.806;2023-07-13T15:55:58;21.30;99.90
2050;DHT22;8478;49.208;8.806;2023-07-13T15:58:24;21.30;99.90
2050;DHT22;8478;49.208;8.806;2023-07-13T16:00:50;21.30;99.90
2050;DHT22;8478;49.208;8.806;2023-07-13T16:03:17;21.30;99.90
2050;DHT22;8478;49.208;8.806;2023-07-13T16:05:42;21.30;99.90
2050;DHT22;8478;49.208;8.806;2023-07-13T16:08:22;21.30;99.90
2050;DHT22;8478;49.208;8.806;2023-07-13T16:10:49;21.30;99.90
2050;DHT22;8478;49.208;8.806;2023-07-13T16:13:16;21.30;99.90
2050;DHT22;8478;49.208;8.806;2023-07-13T16:15:42;21.30;99.90
2050;DHT22;8478;49.208;8.806;2023-07-13T16:18:10;21.30;99.90
2050;DHT22;8478;49.208;8.806;2023-07-13T16:20:38;21.30;99.90
2050;DHT22;8478;49.208;8.806;2023-07-13T16:23:04;21.30;99.90
2050;DHT22;8478;49.208;8.806;2023-07-13T16:25:31;21.30;99.90
2050;DHT22;8478;49.208;8.806;2023-07-13T16:27:58;21.30;99.90
2050;DHT22;8478;49.208;8.806;2023-07-13T16:30:28;21.30;99.90
2050;DHT22;8478;49.208;8.806;2023-07-13T16:33:00;21.30;99.90
2050;DHT22;8478;49.208;8.806;2023-07-13T16:35:39;21.30;99.90
2050;DHT22;8478;49.208;8.806;2023-07-13T16:38:20;21.30;99.90
2050;DHT22;8478;49.208;8.806;2023-07-13T16:40:45;21.30;99.90
2050;DHT22;8478;49.208;8.806;2023-07-13T16:43:17;21.30;99.90
2050;DHT22;8478;49.208;8.806;2023-07-13T16:45:50;21.30;99.90
2050;DHT22;8478;49.208;8.806;2023-07-13T16:48:21;21.30;99.90
2050;DHT22;8478;49.208;8.806;2023-07-13T16:50:53;21.30;99.90
2050;DHT22;8478;49.208;8.806;2023-07-13T16:53:29;21.40;99.90
2050;DHT22;8478;49.208;8.806;2023-07-13T16:55:55;21.40;99.90
2050;DHT22;8478;49.208;8.806;2023-07-13T16:58:23;21.30;99.90
2050;DHT22;8478;49.208;8.806;2023-07-13T17:00:51;21.40;99.90
2050;DHT22;8478;49.208;8.806;2023-07-13T17:03:18;21.40;99.90
2050;DHT22;8478;49.208;8.806;2023-07-13T17:05:45;21.40;99.90
2050;DHT22;8478;49.208;8.806;2023-07-13T17:08:16;21.40;99.90
2050;DHT22;8478;49.208;8.806;2023-07-13T17:10:48;21.30;99.90